Time;durP1;ratioP1;P1;durP2;ratioP2;P2;SDS_P1;SDS_P2;PMS_P1;PMS_P2;Temp;Humidity;BMP_temperature;BMP_pressure;BME280_temperature;BME280_humidity;BME280_pressure;Samples;Min_cycle;Max_cycle;Signal;HPM_P1;HPM_P2
2023/09/19 00:01:36;;;;;;;;;;;;;;;19.28;55.46;100690.97;4961537;28;124945;-75
2023/09/19 00:04:03;;;;;;;;;;;;;;;19.25;55.42;100698.31;4967513;28;123896;-76
2023/09/19 00:06:31;;;;;;;;;;;;;;;19.24;55.45;100704.66;4964611;28;119021;-76
2023/09/19 00:09:02;;;;;;;;;;;;;;;19.23;55.62;100699.41;4962499;28;118796;-76
2023/09/19 00:11:29;;;;;;;;;;;;;;;19.24;55.55;100711.84;4966802;28;124873;-75
2023/09/19 00:13:59;;;;;;;;;;;;;;;19.23;55.49;100713.69;4963185;28;122673;-76
2023/09/19 00:16:26;;;;;;;;;;;;;;;19.22;55.37;100709.28;4955690;28;120188;-76
2023/09/19 00:18:55;;;;;;;;;;;;;;;19.23;55.34;100711.00;4963049;28;117577;-76
2023/09/19 00:21:22;;;;;;;;;;;;;;;19.21;55.30;100712.09;4958449;28;124311;-77
2023/09/19 00:23:51;;;;;;;;;;;;;;;19.20;55.28;100716.63;4967999;28;124421;-76
2023/09/19 00:26:18;;;;;;;;;;;;;;;19.17;55.42;100716.88;4961855;28;120416;-76
2023/09/19 00:28:47;;;;;;;;;;;;;;;19.14;55.36;100716.31;4942557;28;121881;-76
2023/09/19 00:31:14;;;;;;;;;;;;;;;19.11;55.32;100714.72;4962155;28;124496;-76
2023/09/19 00:33:42;;;;;;;;;;;;;;;19.10;55.40;100718.38;4961132;28;124223;-76
2023/09/19 00:36:09;;;;;;;;;;;;;;;19.08;55.32;100717.66;4960464;28;121246;-76
2023/09/19 00:38:36;;;;;;;;;;;;;;;19.04;55.31;100721.56;4965368;28;118630;-76
2023/09/19 00:41:04;;;;;;;;;;;;;;;19.01;55.45;100721.84;4961288;28;124669;-76
2023/09/19 00:43:34;;;;;;;;;;;;;;;18.96;55.36;100724.03;4965683;28;125075;-76
2023/09/19 00:46:04;;;;;;;;;;;;;;;18.95;55.39;100727.69;4964611;28;118566;-76
2023/09/19 00:48:31;;;;;;;;;;;;;;;18.91;55.33;100728.91;4953182;28;119935;-76
2023/09/19 00:51:02;;;;;;;;;;;;;;;18.89;55.43;100731.72;4957187;28;123324;-75
2023/09/19 00:53:30;;;;;;;;;;;;;;;18.86;55.52;100730.16;4963823;28;123792;-77
2023/09/19 00:55:57;;;;;;;;;;;;;;;18.84;55.46;100737.47;4968095;28;119555;-76
2023/09/19 00:58:24;;;;;;;;;;;;;;;18.81;55.49;100743.09;4962673;28;119737;-76
2023/09/19 01:00:53;;;;;;;;;;;;;;;18.80;55.41;100741.41;4964509;28;125231;-76
2023/09/19 01:03:20;;;;;;;;;;;;;;;18.78;55.46;100748.69;4967901;28;125378;-76
2023/09/19 01:05:47;;;;;;;;;;;;;;;18.75;55.49;100738.19;4961797;28;119720;-76
2023/09/19 01:08:14;;;;;;;;;;;;;;;18.73;55.59;100755.41;4962639;28;118797;-76
2023/09/19 01:10:49;;;;;;;;;;;;;;;18.71;55.50;100750.16;4964325;28;123661;-77
2023/09/19 01:13:23;;;;;;;;;;;;;;;18.68;55.47;100753.94;4960841;28;124919;-77
2023/09/19 01:16:11;;;;;;;;;;;;;;;18.66;55.48;100765.75;4954854;28;119495;-76
2023/09/19 01:18:43;;;;;;;;;;;;;;;18.64;55.55;100759.69;4965374;28;119782;-77
2023/09/19 01:21:26;;;;;;;;;;;;;;;18.63;55.56;100757.97;4965242;28;124658;-77
2023/09/19 01:23:56;;;;;;;;;;;;;;;18.62;55.59;100761.63;4956467;28;123734;-77
2023/09/19 01:26:23;;;;;;;;;;;;;;;18.63;55.83;100763.34;4966889;28;119991;-76
2023/09/19 01:29:01;;;;;;;;;;;;;;;18.61;55.57;100767.97;4959960;28;118828;-76
2023/09/19 01:31:31;;;;;;;;;;;;;;;18.62;55.63;100764.31;4941573;28;123162;-77
2023/09/19 01:34:00;;;;;;;;;;;;;;;18.61;55.61;100770.63;4964150;28;126539;-76
2023/09/19 01:36:29;;;;;;;;;;;;;;;18.60;55.55;100777.00;4964233;28;119686;-76
2023/09/19 01:39:08;;;;;;;;;;;;;;;18.59;55.54;100784.19;4959960;28;119291;-76
2023/09/19 01:41:51;;;;;;;;;;;;;;;18.59;55.69;100781.53;4954710;28;124332;-75
2023/09/19 01:44:41;;;;;;;;;;;;;;;18.59;55.65;100786.00;4964526;28;123256;-76
2023/09/19 01:47:13;;;;;;;;;;;;;;;18.57;55.51;100783.47;4963139;28;120353;-77
2023/09/19 01:49:48;;;;;;;;;;;;;;;18.56;55.67;100780.91;4958647;28;118504;-75
2023/09/19 01:52:19;;;;;;;;;;;;;;;18.54;55.52;100788.22;4956387;28;125124;-76
2023/09/19 01:54:49;;;;;;;;;;;;;;;18.51;55.58;100788.47;4941222;28;124887;-75
2023/09/19 01:57:18;;;;;;;;;;;;;;;18.49;55.41;100786.72;4967587;28;119290;-76
2023/09/19 02:00:06;;;;;;;;;;;;;;;18.46;55.59;100787.00;4956006;28;117887;-75
2023/09/19 02:02:40;;;;;;;;;;;;;;;18.45;55.52;100785.28;4954001;28;124799;-76
2023/09/19 02:05:07;;;;;;;;;;;;;;;18.42;55.67;100790.91;4968350;28;123849;-77
2023/09/19 02:07:35;;;;;;;;;;;;;;;18.40;55.60;100795.53;4965327;28;120984;-76
2023/09/19 02:10:05;;;;;;;;;;;;;;;18.38;55.60;100778.69;4945505;28;119910;-75
2023/09/19 02:12:33;;;;;;;;;;;;;;;18.37;55.58;100790.41;4961931;28;124244;-77
2023/09/19 02:15:03;;;;;;;;;;;;;;;18.35;55.59;100794.19;4958466;28;123832;-75
2023/09/19 02:17:31;;;;;;;;;;;;;;;18.34;55.62;100793.31;4966089;28;118860;-77
2023/09/19 02:19:58;;;;;;;;;;;;;;;18.32;55.44;100789.06;4946843;28;120468;-76
2023/09/19 02:22:26;;;;;;;;;;;;;;;18.31;55.65;100798.94;4959685;28;123719;-75
2023/09/19 02:24:53;;;;;;;;;;;;;;;18.28;55.61;100800.00;4961664;28;123824;-76
2023/09/19 02:27:20;;;;;;;;;;;;;;;18.27;55.44;100792.09;4957893;28;119469;-76
2023/09/19 02:29:49;;;;;;;;;;;;;;;18.25;55.43;100794.03;4962796;28;118419;-76
2023/09/19 02:32:17;;;;;;;;;;;;;;;18.26;55.45;100803.81;4960508;28;123531;-76
2023/09/19 02:34:46;;;;;;;;;;;;;;;18.23;55.52;100806.72;4964577;28;123203;-76
2023/09/19 02:37:16;;;;;;;;;;;;;;;18.21;55.35;100808.66;4955393;28;120260;-77
2023/09/19 02:39:43;;;;;;;;;;;;;;;18.19;55.57;100803.41;4970985;28;120565;-77
2023/09/19 02:42:11;;;;;;;;;;;;;;;18.17;55.43;100817.91;4957368;28;125367;-77
2023/09/19 02:44:39;;;;;;;;;;;;;;;18.15;55.52;100814.50;4944689;28;124214;-75
2023/09/19 02:47:06;;;;;;;;;;;;;;;18.14;55.44;100813.66;4964108;28;121175;-76
2023/09/19 02:49:34;;;;;;;;;;;;;;;18.12;55.55;100814.72;4965883;28;119131;-76
2023/09/19 02:52:03;;;;;;;;;;;;;;;18.09;55.28;100811.31;4964103;28;124496;-76
2023/09/19 02:54:30;;;;;;;;;;;;;;;18.07;55.53;100807.91;4965325;28;124114;-76
2023/09/19 02:56:59;;;;;;;;;;;;;;;18.06;55.52;100810.69;4972280;28;122371;-76
2023/09/19 02:59:26;;;;;;;;;;;;;;;18.03;55.40;100811.78;4959702;28;120557;-78
2023/09/19 03:01:54;;;;;;;;;;;;;;;18.00;55.41;100817.38;4965222;28;125268;-77
2023/09/19 03:04:21;;;;;;;;;;;;;;;17.98;55.39;100819.31;4967053;28;124564;-79
2023/09/19 03:06:51;;;;;;;;;;;;;;;17.94;55.59;100817.88;4949733;28;118940;-77
2023/09/19 03:09:19;;;;;;;;;;;;;;;17.91;55.29;100823.44;4960139;28;118655;-76
2023/09/19 03:11:47;;;;;;;;;;;;;;;17.90;55.56;100821.75;4961095;28;125191;-77
2023/09/19 03:14:15;;;;;;;;;;;;;;;17.89;55.42;100825.38;4958754;28;124514;-78
2023/09/19 03:16:44;;;;;;;;;;;;;;;17.86;55.48;100825.66;4965247;28;119755;-77
2023/09/19 03:19:15;;;;;;;;;;;;;;;17.83;55.39;100825.84;4966096;28;121064;-76
2023/09/19 03:21:43;;;;;;;;;;;;;;;17.81;55.41;100827.78;4967016;28;124308;-77
2023/09/19 03:24:10;;;;;;;;;;;;;;;17.80;55.38;100820.69;4966942;28;124872;-77
2023/09/19 03:26:38;;;;;;;;;;;;;;;17.79;55.56;100824.34;4949268;28;120504;-77
2023/09/19 03:29:06;;;;;;;;;;;;;;;17.78;55.45;100814.59;4960599;28;118982;-77
2023/09/19 03:31:36;;;;;;;;;;;;;;;17.76;55.51;100824.59;4963743;28;125653;-77
2023/09/19 03:34:04;;;;;;;;;;;;;;;17.74;55.34;100821.16;4942161;28;125828;-77
2023/09/19 03:36:31;;;;;;;;;;;;;;;17.71;55.52;100823.09;4957922;28;119934;-77
2023/09/19 03:38:58;;;;;;;;;;;;;;;17.71;55.50;100828.47;4959908;28;120296;-77
2023/09/19 03:41:26;;;;;;;;;;;;;;;17.69;55.35;100814.34;4969226;28;123407;-76
2023/09/19 03:43:56;;;;;;;;;;;;;;;17.68;55.45;100817.97;4951997;28;96764;-78
2023/09/19 03:46:23;;;;;;;;;;;;;;;17.67;55.43;100816.28;4948651;28;120816;-77
2023/09/19 03:48:50;;;;;;;;;;;;;;;17.65;55.36;100812.88;4976778;28;118794;-77
2023/09/19 03:51:17;;;;;;;;;;;;;;;17.64;55.46;100821.00;4960703;28;124145;-76
2023/09/19 03:53:44;;;;;;;;;;;;;;;17.63;55.36;100817.50;4960312;28;122840;-77
2023/09/19 03:56:11;;;;;;;;;;;;;;;17.63;55.16;100804.09;4954974;28;121357;-76
2023/09/19 03:58:39;;;;;;;;;;;;;;;17.63;55.36;100809.44;4960002;28;119463;-76
2023/09/19 04:01:07;;;;;;;;;;;;;;;17.63;55.32;100813.94;4957934;28;125018;-76
2023/09/19 04:03:47;;;;;;;;;;;;;;;17.61;55.35;100806.03;4966174;28;122783;-77
2023/09/19 04:06:14;;;;;;;;;;;;;;;17.62;55.33;100813.09;4954343;28;120231;-76
2023/09/19 04:08:42;;;;;;;;;;;;;;;17.62;55.48;100818.44;4966464;28;119350;-77
2023/09/19 04:11:09;;;;;;;;;;;;;;;17.62;55.29;100813.09;4964188;28;124315;-76
2023/09/19 04:13:36;;;;;;;;;;;;;;;17.62;55.50;100813.09;4966584;28;124400;-77
2023/09/19 04:16:04;;;;;;;;;;;;;;;17.63;55.32;100812.13;4949100;28;120510;-77
2023/09/19 04:18:33;;;;;;;;;;;;;;;17.63;55.43;100813.94;4964632;28;118188;-76
2023/09/19 04:21:03;;;;;;;;;;;;;;;17.61;55.37;100811.41;4972400;28;124958;-76
2023/09/19 04:23:31;;;;;;;;;;;;;;;17.61;55.15;100822.09;4959792;28;123333;-77
2023/09/19 04:25:58;;;;;;;;;;;;;;;17.60;55.39;100828.41;4959729;28;119648;-77
2023/09/19 04:28:27;;;;;;;;;;;;;;;17.59;55.27;100829.38;4968794;28;118819;-77
2023/09/19 04:30:55;;;;;;;;;;;;;;;17.57;55.27;100831.31;4967340;28;124797;-76
2023/09/19 04:33:22;;;;;;;;;;;;;;;17.57;55.18;100835.81;4967723;28;124153;-77
2023/09/19 04:35:50;;;;;;;;;;;;;;;17.55;55.25;100849.31;4965369;28;119591;-77
2023/09/19 04:38:20;;;;;;;;;;;;;;;17.53;55.34;100851.25;4966483;28;119140;-76
2023/09/19 04:40:47;;;;;;;;;;;;;;;17.52;55.17;100854.94;4957277;28;124697;-77
2023/09/19 04:43:15;;;;;;;;;;;;;;;17.50;55.32;100864.91;4967780;28;124001;-77
2023/09/19 04:45:42;;;;;;;;;;;;;;;17.50;55.33;100862.22;4964872;28;120073;-77
2023/09/19 04:48:10;;;;;;;;;;;;;;;17.50;55.25;100878.28;4967848;28;118808;-77
2023/09/19 04:50:38;;;;;;;;;;;;;;;17.49;55.24;100884.59;4967455;28;123821;-77
2023/09/19 04:53:06;;;;;;;;;;;;;;;17.49;55.37;100881.91;4956916;28;124394;-76
2023/09/19 04:55:33;;;;;;;;;;;;;;;17.50;55.46;100883.66;4959018;28;119297;-76
2023/09/19 04:58:00;;;;;;;;;;;;;;;17.51;55.28;100879.97;4961354;28;119055;-75
2023/09/19 05:00:30;;;;;;;;;;;;;;;17.51;55.30;100882.66;4950232;28;123197;-75
2023/09/19 05:02:57;;;;;;;;;;;;;;;17.51;55.36;100882.66;4956561;28;124331;-76
2023/09/19 05:05:25;;;;;;;;;;;;;;;17.51;55.38;100885.34;4965667;28;119304;-76
2023/09/19 05:07:54;;;;;;;;;;;;;;;17.52;55.37;100887.06;4967126;28;119131;-76
2023/09/19 05:10:21;;;;;;;;;;;;;;;17.55;55.38;100886.81;4964926;28;124886;-75
2023/09/19 05:12:51;;;;;;;;;;;;;;;17.56;55.31;100883.19;4967244;28;124957;-76
2023/09/19 05:15:18;;;;;;;;;;;;;;;17.58;55.47;100885.75;4968093;28;119742;-76
2023/09/19 05:17:54;;;;;;;;;;;;;;;17.59;55.47;100890.97;4965584;28;118892;-76
2023/09/19 05:20:29;;;;;;;;;;;;;;;17.59;55.47;100893.66;4962661;28;124284;-75
2023/09/19 05:23:01;;;;;;;;;;;;;;;17.59;55.38;100893.66;4967331;28;124073;-76
2023/09/19 05:25:31;;;;;;;;;;;;;;;17.59;55.64;100899.00;4959694;28;122328;-75
2023/09/19 05:28:00;;;;;;;;;;;;;;;17.59;55.37;100893.66;4963577;28;119759;-76
2023/09/19 05:30:27;;;;;;;;;;;;;;;17.62;55.43;100909.50;4965971;28;123819;-75
2023/09/19 05:32:54;;;;;;;;;;;;;;;17.63;55.56;100895.16;4957709;28;123624;-75
2023/09/19 05:35:22;;;;;;;;;;;;;;;17.65;55.53;100892.34;4960652;28;120263;-76
2023/09/19 05:37:53;;;;;;;;;;;;;;;17.67;55.41;100901.16;4957024;28;118955;-76
2023/09/19 05:40:20;;;;;;;;;;;;;;;17.67;55.42;100896.63;4961208;28;125049;-76
2023/09/19 05:42:47;;;;;;;;;;;;;;;17.68;55.36;100892.97;4967397;28;123033;-75
2023/09/19 05:45:18;;;;;;;;;;;;;;;17.69;55.49;100894.69;4968508;28;120292;-76
2023/09/19 05:47:46;;;;;;;;;;;;;;;17.69;55.49;100889.34;4957043;28;118922;-76
2023/09/19 05:50:14;;;;;;;;;;;;;;;17.69;55.53;100889.34;4965055;28;124184;-76
2023/09/19 05:52:42;;;;;;;;;;;;;;;17.71;55.40;100900.78;4966872;28;123501;-76
2023/09/19 05:55:10;;;;;;;;;;;;;;;17.71;55.24;100897.28;4961537;28;119448;-76
2023/09/19 05:57:42;;;;;;;;;;;;;;;17.73;55.49;100889.13;4964867;28;119041;-76
2023/09/19 06:00:11;;;;;;;;;;;;;;;17.75;55.60;100887.19;4964809;28;124110;-77
2023/09/19 06:02:37;;;;;;;;;;;;;;;17.76;55.51;100888.88;4962448;28;124101;-76
2023/09/19 06:05:14;;;;;;;;;;;;;;;17.79;55.63;100894.00;4949697;28;118647;-76
2023/09/19 06:07:41;;;;;;;;;;;;;;;17.79;55.50;100894.00;4963060;28;118764;-75
2023/09/19 06:10:09;;;;;;;;;;;;;;;17.81;55.44;100898.28;4975728;28;123249;-76
2023/09/19 06:12:40;;;;;;;;;;;;;;;17.84;55.56;100907.94;4968544;28;123979;-76
2023/09/19 06:15:12;;;;;;;;;;;;;;;17.87;55.58;100897.00;4962858;28;120637;-77
2023/09/19 06:17:39;;;;;;;;;;;;;;;17.90;55.68;100902.13;4966392;28;118705;-77
2023/09/19 06:20:14;;;;;;;;;;;;;;;17.93;55.71;100901.03;4961779;28;125512;-76
2023/09/19 06:22:42;;;;;;;;;;;;;;;17.97;55.57;100897.16;4963817;28;123072;-76
2023/09/19 06:25:11;;;;;;;;;;;;;;;18.00;55.48;100897.78;4961462;28;119617;-76
2023/09/19 06:27:42;;;;;;;;;;;;;;;18.02;55.62;100900.34;4962920;28;119654;-76
2023/09/19 06:30:11;;;;;;;;;;;;;;;18.05;55.58;100905.50;4963826;28;124103;-76
2023/09/19 06:32:38;;;;;;;;;;;;;;;18.08;55.57;100906.13;4958528;28;124666;-76
2023/09/19 06:35:08;;;;;;;;;;;;;;;18.12;55.53;100911.22;4961096;28;120071;-76
2023/09/19 06:37:38;;;;;;;;;;;;;;;18.13;55.52;100908.44;4957342;28;118768;-76
2023/09/19 06:40:17;;;;;;;;;;;;;;;18.17;55.57;100919.78;4964108;28;124490;-76
2023/09/19 06:42:45;;;;;;;;;;;;;;;18.18;55.56;100916.16;4963163;28;124297;-76
2023/09/19 06:45:17;;;;;;;;;;;;;;;18.20;55.58;100919.56;4966027;28;119464;-75
2023/09/19 06:47:45;;;;;;;;;;;;;;;18.22;55.54;100929.19;4960297;28;118141;-75
2023/09/19 06:50:14;;;;;;;;;;;;;;;18.27;55.58;100928.81;4953952;28;125086;-74
2023/09/19 06:52:41;;;;;;;;;;;;;;;18.31;55.60;100941.06;4951424;28;123792;-74
2023/09/19 06:55:13;;;;;;;;;;;;;;;18.33;55.50;100931.06;4954517;28;119244;-75
2023/09/19 06:57:43;;;;;;;;;;;;;;;18.36;55.49;100930.81;4961190;28;118635;-74
2023/09/19 07:00:31;;;;;;;;;;;;;;;18.39;55.34;100930.56;4953393;28;124393;-75
2023/09/19 07:03:08;;;;;;;;;;;;;;;18.42;55.43;100935.72;4960152;28;124027;-76
2023/09/19 07:05:39;;;;;;;;;;;;;;;18.45;55.46;100923.88;4957085;28;120457;-73
2023/09/19 07:08:07;;;;;;;;;;;;;;;18.48;55.55;100929.03;4962735;28;121016;-75
2023/09/19 07:10:35;;;;;;;;;;;;;;;18.51;55.58;100922.56;4961019;28;124471;-76
2023/09/19 07:13:02;;;;;;;;;;;;;;;18.54;55.60;100933.06;4955297;28;124470;-73
2023/09/19 07:15:30;;;;;;;;;;;;;;;18.57;55.38;100922.09;4959908;28;120061;-75
2023/09/19 07:17:57;;;;;;;;;;;;;;;18.61;55.48;100934.28;4961889;28;119784;-74
2023/09/19 07:20:31;;;;;;;;;;;;;;;18.63;55.53;100932.34;4964163;28;125482;-75
2023/09/19 07:23:01;;;;;;;;;;;;;;;18.66;55.55;100932.09;4961777;28;124427;-75
2023/09/19 07:25:29;;;;;;;;;;;;;;;18.70;55.55;100941.63;4957193;28;118948;-77
2023/09/19 07:27:59;;;;;;;;;;;;;;;18.75;55.62;100942.13;4959550;28;119653;-76
2023/09/19 07:30:27;;;;;;;;;;;;;;;18.78;55.42;100936.53;4954504;28;124160;-75
2023/09/19 07:32:54;;;;;;;;;;;;;;;18.82;55.39;100938.00;4963361;28;124239;-75
2023/09/19 07:35:21;;;;;;;;;;;;;;;18.84;55.56;100941.44;4961893;28;118999;-75
2023/09/19 07:37:56;;;;;;;;;;;;;;;18.88;55.36;100946.56;4960018;28;118290;-75
2023/09/19 07:40:26;;;;;;;;;;;;;;;18.91;55.46;100930.22;4954530;28;124457;-76
2023/09/19 07:42:54;;;;;;;;;;;;;;;18.94;55.46;100938.88;4958910;28;123885;-76
2023/09/19 07:45:21;;;;;;;;;;;;;;;19.00;55.49;100937.53;4962127;28;119194;-76
2023/09/19 07:47:55;;;;;;;;;;;;;;;19.04;55.46;100936.31;4946864;28;119721;-76
2023/09/19 07:50:28;;;;;;;;;;;;;;;19.08;55.61;100932.44;4963252;28;124560;-75
2023/09/19 07:52:56;;;;;;;;;;;;;;;19.15;55.68;100955.09;4966579;28;123632;-75
2023/09/19 07:55:25;;;;;;;;;;;;;;;19.21;55.61;100941.22;4958840;28;121171;-76
2023/09/19 07:57:52;;;;;;;;;;;;;;;19.30;55.62;100931.53;4959404;28;119210;-75
2023/09/19 08:00:20;;;;;;;;;;;;;;;19.39;55.65;100936.19;4958892;28;124361;-77
2023/09/19 08:02:47;;;;;;;;;;;;;;;19.47;55.61;100942.75;4966392;28;124011;-76
2023/09/19 08:05:24;;;;;;;;;;;;;;;19.53;55.55;100945.78;4963140;28;119646;-75
2023/09/19 08:07:53;;;;;;;;;;;;;;;19.62;55.66;100946.88;4967988;28;119780;-75
2023/09/19 08:10:21;;;;;;;;;;;;;;;19.72;55.65;100957.72;4963352;28;125242;-78
2023/09/19 08:12:48;;;;;;;;;;;;;;;19.81;55.76;100947.09;4968879;28;123157;-79
2023/09/19 08:15:17;;;;;;;;;;;;;;;19.93;55.80;100939.00;4966121;28;119869;-77
2023/09/19 08:17:44;;;;;;;;;;;;;;;20.03;55.46;100948.88;4965504;28;118335;-77
2023/09/19 08:20:18;;;;;;;;;;;;;;;20.12;55.45;100954.47;4967911;28;125674;-78
2023/09/19 08:22:54;;;;;;;;;;;;;;;20.17;55.53;100946.88;4972853;28;123744;-77
2023/09/19 08:25:22;;;;;;;;;;;;;;;20.21;55.32;100951.00;4959396;28;119689;-77
2023/09/19 08:27:50;;;;;;;;;;;;;;;20.24;55.23;100948.06;4962029;28;118077;-77
2023/09/19 08:30:20;;;;;;;;;;;;;;;20.28;55.45;100954.88;4982498;28;126102;-77
2023/09/19 08:32:47;;;;;;;;;;;;;;;20.36;55.31;100962.31;4965500;28;123193;-77
2023/09/19 08:35:14;;;;;;;;;;;;;;;20.40;55.32;100953.84;4962193;28;119347;-78
2023/09/19 08:37:42;;;;;;;;;;;;;;;20.45;55.31;100955.31;4963857;28;120014;-78
2023/09/19 08:40:09;;;;;;;;;;;;;;;20.50;55.19;100948.53;4967749;28;124666;-78
2023/09/19 08:42:56;;;;;;;;;;;;;;;20.54;55.29;100943.75;4964996;28;123960;-75
2023/09/19 08:45:27;;;;;;;;;;;;;;;20.63;55.31;100953.75;4958183;28;121241;-75
2023/09/19 08:48:11;;;;;;;;;;;;;;;20.71;55.29;100956.63;4965134;28;119427;-75
2023/09/19 08:50:43;;;;;;;;;;;;;;;20.79;55.30;100959.53;4941509;28;125507;-77
2023/09/19 08:53:14;;;;;;;;;;;;;;;20.86;55.26;100954.47;4963796;28;124250;-79
2023/09/19 08:55:43;;;;;;;;;;;;;;;20.94;55.14;100961.88;4963881;28;119664;-79
2023/09/19 08:58:10;;;;;;;;;;;;;;;20.99;55.12;100967.72;4965769;28;119666;-80
2023/09/19 09:00:42;;;;;;;;;;;;;;;21.03;55.01;100961.06;4966459;28;124938;-80
2023/09/19 09:03:10;;;;;;;;;;;;;;;21.06;55.00;100959.94;4969406;28;123974;-81
2023/09/19 09:05:41;;;;;;;;;;;;;;;21.11;55.08;100958.53;4963309;28;119622;-79
2023/09/19 09:08:10;;;;;;;;;;;;;;;21.14;54.87;100966.38;4968951;28;117868;-78
2023/09/19 09:11:02;;;;;;;;;;;;;;;21.19;54.96;100953.34;4969439;28;124301;-79
2023/09/19 09:13:30;;;;;;;;;;;;;;;21.27;55.06;100946.44;4970272;28;124928;-78
2023/09/19 09:15:59;;;;;;;;;;;;;;;21.34;55.16;100947.56;4970366;28;119838;-79
2023/09/19 09:18:26;;;;;;;;;;;;;;;21.37;54.94;100948.16;4964935;28;118779;-79
2023/09/19 09:20:53;;;;;;;;;;;;;;;21.38;54.77;100957.13;4963355;28;125482;-79
2023/09/19 09:23:21;;;;;;;;;;;;;;;21.40;54.84;100957.84;4956411;28;124199;-79
2023/09/19 09:25:56;;;;;;;;;;;;;;;21.44;54.75;100947.63;4960447;28;119781;-79
2023/09/19 09:28:24;;;;;;;;;;;;;;;21.48;54.85;100951.78;4967658;28;118754;-79
2023/09/19 09:30:51;;;;;;;;;;;;;;;21.51;54.76;100960.44;4966262;28;125016;-79
2023/09/19 09:33:18;;;;;;;;;;;;;;;21.57;54.80;100943.72;4979166;28;123921;-80
2023/09/19 09:35:56;;;;;;;;;;;;;;;21.61;54.67;100954.22;4963396;28;120506;-79
2023/09/19 09:38:28;;;;;;;;;;;;;;;21.64;54.66;100948.53;4963266;28;119599;-78
2023/09/19 09:41:01;;;;;;;;;;;;;;;21.71;54.76;100944.31;4959873;28;124336;-79
2023/09/19 09:43:30;;;;;;;;;;;;;;;21.79;54.71;100930.97;4957792;28;123982;-80
2023/09/19 09:46:10;;;;;;;;;;;;;;;21.86;54.71;100913.25;4964921;28;119417;-79
2023/09/19 09:48:39;;;;;;;;;;;;;;;21.93;54.84;100921.63;4964791;28;118534;-80
2023/09/19 09:51:07;;;;;;;;;;;;;;;21.96;54.52;100921.34;4967576;28;124633;-79
2023/09/19 09:53:36;;;;;;;;;;;;;;;22.00;54.52;100919.22;4961528;28;124058;-78
2023/09/19 09:56:05;;;;;;;;;;;;;;;22.06;54.57;100921.38;4949015;28;118795;-79
2023/09/19 09:58:33;;;;;;;;;;;;;;;22.15;54.53;100931.28;4960934;28;118178;-79
2023/09/19 10:01:08;;;;;;;;;;;;;;;22.23;54.54;100923.34;4958629;28;124119;-78
2023/09/19 10:03:39;;;;;;;;;;;;;;;22.30;54.41;100927.22;4961751;28;124137;-78
2023/09/19 10:06:26;;;;;;;;;;;;;;;22.36;54.47;100933.88;4965100;28;119751;-78
2023/09/19 10:11:40;;;;;;;;;;;;;;;22.51;54.22;100928.88;4963905;28;124433;-78
2023/09/19 10:14:08;;;;;;;;;;;;;;;22.57;54.39;100930.16;4974019;28;123824;-79
2023/09/19 10:16:35;;;;;;;;;;;;;;;22.61;54.43;100927.00;4972101;28;119839;-80
2023/09/19 10:19:06;;;;;;;;;;;;;;;22.69;54.38;100929.81;4959571;28;119107;-80
2023/09/19 10:21:36;;;;;;;;;;;;;;;22.72;54.18;100929.53;4961039;28;123217;-79
2023/09/19 10:24:07;;;;;;;;;;;;;;;22.74;53.79;100932.09;4959971;28;123581;-80
2023/09/19 10:26:36;;;;;;;;;;;;;;;22.77;53.97;100936.34;4961800;28;121224;-79
2023/09/19 10:29:07;;;;;;;;;;;;;;;22.82;54.15;100934.91;4966615;28;119544;-80
2023/09/19 10:31:36;;;;;;;;;;;;;;;22.92;54.04;100924.06;4963725;28;124381;-79
2023/09/19 10:34:04;;;;;;;;;;;;;;;23.01;54.03;100920.47;4977787;28;124246;-78
2023/09/19 10:36:33;;;;;;;;;;;;;;;23.12;54.15;100920.31;4961240;28;118717;-79
2023/09/19 10:39:04;;;;;;;;;;;;;;;23.26;54.13;100915.41;4944363;28;118438;-78
2023/09/19 10:41:34;;;;;;;;;;;;;;;23.37;53.83;100950.34;4963627;28;124660;-79
2023/09/19 10:44:03;;;;;;;;;;;;;;;23.42;53.67;100921.03;4966682;28;123699;-79
2023/09/19 10:46:31;;;;;;;;;;;;;;;23.44;53.56;100919.03;4967748;28;119717;-78
2023/09/19 10:49:02;;;;;;;;;;;;;;;23.45;53.40;100931.56;4932620;28;118469;-79
2023/09/19 10:51:31;;;;;;;;;;;;;;;23.47;53.47;100924.13;4963789;28;124375;-79
2023/09/19 10:54:26;;;;;;;;;;;;;;;23.49;53.28;100911.31;4964097;28;124167;-79
2023/09/19 10:56:53;;;;;;;;;;;;;;;23.48;53.31;100914.16;4963442;28;120690;-78
2023/09/19 10:59:21;;;;;;;;;;;;;;;23.51;53.57;100925.53;4964876;28;119683;-78
2023/09/19 11:01:53;;;;;;;;;;;;;;;23.56;53.49;100918.81;4961974;28;123847;-78
2023/09/19 11:04:29;;;;;;;;;;;;;;;23.64;53.57;100927.00;4965834;28;124071;-78
2023/09/19 11:07:12;;;;;;;;;;;;;;;23.71;53.30;100925.41;4966628;28;118391;-78
2023/09/19 11:09:57;;;;;;;;;;;;;;;23.77;53.09;100919.41;4956132;28;118284;-78
2023/09/19 11:12:31;;;;;;;;;;;;;;;23.77;53.05;100903.16;4943977;28;123809;-78
2023/09/19 11:14:58;;;;;;;;;;;;;;;23.76;53.05;100890.63;4943562;28;123474;-78
2023/09/19 11:17:32;;;;;;;;;;;;;;;23.77;53.24;100900.47;4948617;28;119438;-78
2023/09/19 11:22:58;;;;;;;;;;;;;;;23.81;53.15;100882.94;4965789;28;124674;-78
2023/09/19 11:25:34;;;;;;;;;;;;;;;23.82;52.91;100881.94;4961082;28;124158;-78
2023/09/19 11:30:43;;;;;;;;;;;;;;;23.84;53.04;100877.22;4958095;28;119458;-78
2023/09/19 11:33:31;;;;;;;;;;;;;;;23.87;53.10;100866.09;4963779;28;125039;-78
2023/09/19 11:36:01;;;;;;;;;;;;;;;23.93;53.08;100885.41;4954313;28;124127;-78
2023/09/19 11:38:49;;;;;;;;;;;;;;;23.96;52.79;100874.28;4966262;28;120787;-78
2023/09/19 11:41:19;;;;;;;;;;;;;;;23.95;52.75;100862.59;4958548;28;119733;-78
2023/09/19 11:43:50;;;;;;;;;;;;;;;23.95;52.92;100859.06;4955677;28;124661;-78
2023/09/19 11:46:21;;;;;;;;;;;;;;;23.95;52.83;100856.34;4962687;28;125490;-78
2023/09/19 11:48:49;;;;;;;;;;;;;;;23.97;52.99;100855.19;4963376;28;118712;-78
2023/09/19 11:51:26;;;;;;;;;;;;;;;24.03;53.01;100848.28;4957923;28;117794;-78
2023/09/19 11:53:54;;;;;;;;;;;;;;;24.10;52.92;100849.38;4962392;28;124118;-78
2023/09/19 11:56:23;;;;;;;;;;;;;;;24.19;52.69;100837.59;4966249;28;125073;-78
2023/09/19 11:58:55;;;;;;;;;;;;;;;24.32;52.77;100852.56;4966523;28;119476;-77
2023/09/19 12:01:33;;;;;;;;;;;;;;;24.44;52.91;100840.47;4966594;28;118980;-78
2023/09/19 12:04:01;;;;;;;;;;;;;;;24.53;52.98;100842.25;4960630;28;124517;-78
2023/09/19 12:06:29;;;;;;;;;;;;;;;24.59;52.77;100838.91;4965303;28;124508;-78
2023/09/19 12:09:00;;;;;;;;;;;;;;;24.66;52.58;100839.94;4965814;28;120085;-78
2023/09/19 12:11:33;;;;;;;;;;;;;;;24.73;52.35;100828.47;4965696;28;120203;-78
2023/09/19 12:14:02;;;;;;;;;;;;;;;24.79;52.45;100849.47;4965922;28;124229;-78
2023/09/19 12:16:33;;;;;;;;;;;;;;;24.82;52.09;100830.22;4957606;28;124833;-77
2023/09/19 12:19:18;;;;;;;;;;;;;;;24.83;52.25;100834.63;4961991;28;119606;-77
2023/09/19 12:21:53;;;;;;;;;;;;;;;24.84;52.35;100830.88;4958386;28;118554;-78
2023/09/19 12:24:20;;;;;;;;;;;;;;;24.85;51.87;100832.59;4971239;28;125152;-78
2023/09/19 12:26:47;;;;;;;;;;;;;;;24.85;51.90;100838.03;4961698;28;122815;-78
2023/09/19 12:29:17;;;;;;;;;;;;;;;24.84;51.84;100825.47;4962633;28;119422;-77
2023/09/19 12:31:50;;;;;;;;;;;;;;;24.81;51.78;100826.66;4958260;28;118479;-78
2023/09/19 12:34:27;;;;;;;;;;;;;;;24.80;51.78;100829.53;4946204;28;124181;-77
2023/09/19 12:37:21;;;;;;;;;;;;;;;24.82;51.90;100832.91;4952006;28;124377;-78
2023/09/19 12:39:50;;;;;;;;;;;;;;;24.79;51.70;100822.38;4958513;28;119667;-77
2023/09/19 12:42:19;;;;;;;;;;;;;;;24.82;52.03;100843.75;4965880;28;119928;-78
2023/09/19 12:44:47;;;;;;;;;;;;;;;24.87;51.74;100827.88;4963627;28;124138;-77
2023/09/19 12:47:17;;;;;;;;;;;;;;;24.88;51.67;100837.66;4964391;28;124021;-77
2023/09/19 12:50:03;;;;;;;;;;;;;;;24.83;51.59;100827.34;4962221;28;118544;-77
2023/09/19 12:52:36;;;;;;;;;;;;;;;24.75;51.31;100832.72;4959343;28;118816;-77